createdAt,value
2022-09-12T00:01:49.730Z,5.53
2022-09-12T00:04:16.551Z,7.30
2022-09-12T00:06:43.358Z,5.35
2022-09-12T00:09:13.164Z,6.68
2022-09-12T00:11:42.326Z,7.88
2022-09-12T00:14:10.750Z,5.47
2022-09-12T00:16:37.824Z,5.25
2022-09-12T00:19:05.896Z,4.15
2022-09-12T00:21:34.288Z,3.90
2022-09-12T00:24:01.364Z,3.53
2022-09-12T00:26:28.121Z,4.30
2022-09-12T00:28:54.787Z,5.30
2022-09-12T00:31:26.482Z,4.47
2022-09-12T00:33:56.459Z,4.35
2022-09-12T00:36:25.119Z,4.80
2022-09-12T00:38:52.589Z,5.17
2022-09-12T00:41:26.090Z,4.13
2022-09-12T00:43:58.463Z,4.35
2022-09-12T00:46:37.500Z,6.13
2022-09-12T00:49:04.211Z,4.65
2022-09-12T00:51:33.755Z,5.10
2022-09-12T00:54:05.744Z,6.05
2022-09-12T00:56:33.095Z,6.00
2022-09-12T00:59:12.719Z,4.53
2022-09-12T01:01:42.077Z,5.68
2022-09-12T01:04:10.976Z,5.53
2022-09-12T01:06:41.604Z,19.25
2022-09-12T01:09:09.558Z,6.13
2022-09-12T01:11:38.869Z,5.43
2022-09-12T01:14:06.358Z,6.25
2022-09-12T01:16:36.293Z,8.87
2022-09-12T01:19:25.988Z,4.57
2022-09-12T01:22:11.074Z,6.68
2022-09-12T01:25:01.153Z,5.10
2022-09-12T01:27:46.513Z,4.88
2022-09-12T01:30:31.289Z,6.17
2022-09-12T01:33:21.366Z,5.47
2022-09-12T01:36:16.996Z,4.57
2022-09-12T01:38:56.612Z,4.70
2022-09-12T01:41:32.154Z,4.75
2022-09-12T01:44:02.203Z,5.10
2022-09-12T01:47:02.594Z,5.05
2022-09-12T01:49:41.298Z,7.88
2022-09-12T01:52:23.171Z,6.85
2022-09-12T01:55:13.867Z,5.78
2022-09-12T01:57:52.836Z,6.73
2022-09-12T02:00:19.921Z,5.90
2022-09-12T02:02:57.411Z,6.45
2022-09-12T02:05:31.690Z,5.10
2022-09-12T02:08:38.946Z,7.35
2022-09-12T02:11:11.135Z,10.60
2022-09-12T02:13:55.704Z,6.00
2022-09-12T02:16:30.413Z,5.50
2022-09-12T02:19:15.770Z,7.60
2022-09-12T02:21:47.539Z,6.68
2022-09-12T02:24:16.005Z,7.20
2022-09-12T02:26:54.963Z,6.95
2022-09-12T02:29:21.699Z,5.07
2022-09-12T02:31:51.595Z,5.72
2022-09-12T02:34:40.128Z,7.85
2022-09-12T02:37:22.090Z,6.90
2022-09-12T02:39:48.862Z,6.00
2022-09-12T02:42:15.700Z,4.97
2022-09-12T02:44:42.778Z,7.47
2022-09-12T02:47:16.098Z,7.15
2022-09-12T02:49:42.947Z,5.53
2022-09-12T02:52:09.987Z,5.85
2022-09-12T02:54:38.207Z,5.95
2022-09-12T02:57:22.342Z,6.43
2022-09-12T02:59:53.531Z,5.90
2022-09-12T03:02:39.768Z,5.40
2022-09-12T03:05:33.784Z,5.93
2022-09-12T03:08:09.160Z,7.95
2022-09-12T03:10:41.909Z,6.45
2022-09-12T03:13:27.011Z,6.97
2022-09-12T03:16:16.834Z,5.33
2022-09-12T03:18:46.655Z,7.03
2022-09-12T03:21:31.198Z,7.95
2022-09-12T03:24:07.021Z,5.82
2022-09-12T03:26:42.829Z,7.53
2022-09-12T03:29:11.844Z,6.93
2022-09-12T03:31:52.379Z,6.53
2022-09-12T03:34:20.088Z,6.68
2022-09-12T03:36:46.979Z,8.88
2022-09-12T03:39:13.793Z,7.93
2022-09-12T03:41:40.706Z,7.67
2022-09-12T03:44:07.844Z,9.07
2022-09-12T03:46:35.296Z,7.60
2022-09-12T03:49:02.032Z,7.15
2022-09-12T03:51:28.961Z,10.55
2022-09-12T03:53:55.809Z,5.77
2022-09-12T03:56:22.519Z,7.53
2022-09-12T03:58:49.241Z,7.13
2022-09-12T04:01:18.105Z,7.80
2022-09-12T04:03:47.149Z,7.75
2022-09-12T04:06:15.815Z,8.67
2022-09-12T04:08:43.726Z,7.18
2022-09-12T04:11:13.102Z,5.70
2022-09-12T04:13:41.127Z,6.15
2022-09-12T04:16:09.232Z,7.30
2022-09-12T04:18:36.691Z,8.43
2022-09-12T04:21:07.547Z,7.57
2022-09-12T04:23:34.919Z,8.23
2022-09-12T04:26:03.366Z,10.85
2022-09-12T04:28:30.207Z,10.70
2022-09-12T04:31:06.099Z,7.37
2022-09-12T04:33:33.792Z,9.63
2022-09-12T04:36:06.329Z,9.77
2022-09-12T04:38:34.105Z,7.53
2022-09-12T04:41:01.145Z,7.75
2022-09-12T04:43:28.133Z,8.57
2022-09-12T04:45:55.011Z,7.38
2022-09-12T04:48:21.758Z,6.28
2022-09-12T04:50:48.496Z,10.45
2022-09-12T04:53:15.266Z,7.60
2022-09-12T04:55:41.999Z,6.13
2022-09-12T04:58:08.724Z,7.97
2022-09-12T05:00:35.440Z,8.15
2022-09-12T05:03:02.317Z,8.07
2022-09-12T05:05:29.015Z,7.78
2022-09-12T05:07:55.792Z,6.00
2022-09-12T05:10:23.844Z,8.48
2022-09-12T05:12:50.701Z,7.20
2022-09-12T05:15:18.019Z,7.80
2022-09-12T05:17:44.825Z,8.60
2022-09-12T05:20:12.871Z,9.90
2022-09-12T05:22:39.752Z,9.52
2022-09-12T05:25:07.151Z,7.63
2022-09-12T05:27:34.344Z,9.73
2022-09-12T05:30:01.177Z,9.85
2022-09-12T05:32:31.749Z,8.53
2022-09-12T05:34:58.996Z,11.35
2022-09-12T05:37:25.889Z,8.38
2022-09-12T05:39:52.948Z,8.07
2022-09-12T05:42:19.729Z,8.05
2022-09-12T05:44:46.628Z,7.83
2022-09-12T05:47:13.300Z,7.90
2022-09-12T05:49:40.086Z,8.07
2022-09-12T05:52:07.030Z,7.65
2022-09-12T05:54:34.405Z,10.32
2022-09-12T05:57:01.153Z,6.80
2022-09-12T05:59:28.541Z,8.65
2022-09-12T06:01:55.536Z,8.45
2022-09-12T06:04:23.759Z,11.93
2022-09-12T06:06:51.892Z,8.50
2022-09-12T06:09:18.836Z,9.90
2022-09-12T06:11:46.517Z,7.85
2022-09-12T06:14:15.462Z,7.20
2022-09-12T06:16:42.752Z,9.13
2022-09-12T06:19:18.203Z,9.80
2022-09-12T06:21:45.668Z,9.30
2022-09-12T06:24:12.511Z,7.35
2022-09-12T06:26:39.478Z,6.70
2022-09-12T06:29:06.311Z,8.00
2022-09-12T06:31:37.486Z,9.73
2022-09-12T06:34:06.727Z,6.80
2022-09-12T06:36:37.768Z,7.60
2022-09-12T06:39:07.818Z,7.30
2022-09-12T06:41:34.921Z,7.35
2022-09-12T06:44:02.097Z,10.43
2022-09-12T06:46:29.513Z,9.17
2022-09-12T06:48:57.467Z,8.90
2022-09-12T06:51:24.573Z,13.65
2022-09-12T06:53:52.352Z,11.85
2022-09-12T06:56:21.331Z,7.65
2022-09-12T06:58:50.073Z,9.17
2022-09-12T07:01:19.530Z,7.93
2022-09-12T07:03:55.089Z,9.55
2022-09-12T07:06:31.532Z,12.80
2022-09-12T07:08:59.696Z,10.77
2022-09-12T07:11:29.106Z,9.13
2022-09-12T07:13:56.754Z,6.63
2022-09-12T07:16:24.033Z,7.97
2022-09-12T07:18:57.207Z,9.40
2022-09-12T07:21:24.024Z,7.75
2022-09-12T07:23:52.050Z,7.93
2022-09-12T07:26:19.275Z,9.80
2022-09-12T07:28:45.967Z,6.32
2022-09-12T07:31:18.393Z,7.60
2022-09-12T07:33:45.327Z,7.30
2022-09-12T07:36:14.346Z,8.40
2022-09-12T07:38:41.729Z,6.50
2022-09-12T07:41:17.570Z,5.47
2022-09-12T07:43:44.830Z,7.05
2022-09-12T07:46:12.544Z,7.25
2022-09-12T07:48:39.460Z,6.10
2022-09-12T07:51:08.311Z,7.63
2022-09-12T07:53:41.750Z,7.10
2022-09-12T07:56:13.058Z,7.50
2022-09-12T07:58:41.928Z,5.75
2022-09-12T08:01:12.941Z,7.00
2022-09-12T08:03:44.655Z,6.25
2022-09-12T08:06:14.654Z,6.10
2022-09-12T08:08:42.418Z,6.63
2022-09-12T08:11:12.378Z,7.38
2022-09-12T08:13:40.841Z,8.63
2022-09-12T08:16:18.741Z,7.15
2022-09-12T08:18:45.805Z,7.50
2022-09-12T08:21:15.632Z,12.48
2022-09-12T08:23:43.483Z,8.00
2022-09-12T08:26:11.799Z,7.73
2022-09-12T08:28:42.098Z,7.93
2022-09-12T08:31:12.304Z,6.25
2022-09-12T08:33:39.554Z,6.63
2022-09-12T08:36:12.302Z,7.45
2022-09-12T08:38:41.566Z,8.30
2022-09-12T08:41:34.819Z,9.60
2022-09-12T08:44:26.428Z,7.28
2022-09-12T08:47:14.780Z,8.60
2022-09-12T08:49:53.259Z,7.57
2022-09-12T08:52:44.279Z,7.03
2022-09-12T08:55:26.550Z,7.28
2022-09-12T08:57:54.635Z,8.07
2022-09-12T09:00:21.884Z,8.07
2022-09-12T09:02:54.376Z,9.98
2022-09-12T09:05:43.770Z,8.73
2022-09-12T09:08:22.829Z,9.07
2022-09-12T09:11:13.798Z,7.13
2022-09-12T09:14:05.555Z,7.57
2022-09-12T09:16:38.291Z,7.90
2022-09-12T09:19:12.769Z,8.60
2022-09-12T09:21:51.645Z,8.52
2022-09-12T09:24:24.838Z,7.90
2022-09-12T09:27:41.292Z,7.45
2022-09-12T09:30:15.399Z,7.30
2022-09-12T09:32:42.978Z,8.27
2022-09-12T09:35:43.591Z,8.65
2022-09-12T09:38:40.234Z,11.68
2022-09-12T09:41:47.697Z,8.43
2022-09-12T09:44:14.441Z,8.48
2022-09-12T09:46:41.345Z,7.80
2022-09-12T09:49:14.439Z,8.15
2022-09-12T09:51:42.339Z,8.35
2022-09-12T09:54:20.271Z,7.13
2022-09-12T09:56:47.635Z,7.93
2022-09-12T09:59:25.753Z,6.37
2022-09-12T10:01:55.382Z,7.75
2022-09-12T10:04:24.773Z,7.53
2022-09-12T10:06:59.864Z,6.70
2022-09-12T10:09:29.151Z,5.80
2022-09-12T10:11:57.188Z,6.47
2022-09-12T10:14:40.523Z,5.53
2022-09-12T10:17:24.164Z,5.97
2022-09-12T10:20:10.421Z,5.38
2022-09-12T10:22:38.701Z,6.10
2022-09-12T10:25:12.323Z,5.20
2022-09-12T10:27:41.571Z,7.57
2022-09-12T10:30:18.207Z,5.00
2022-09-12T10:32:50.589Z,7.10
2022-09-12T10:35:23.065Z,10.40
2022-09-12T10:38:03.095Z,6.37
2022-09-12T10:40:34.516Z,6.57
2022-09-12T10:43:02.931Z,6.55
2022-09-12T10:45:32.233Z,7.22
2022-09-12T10:48:06.792Z,5.68
2022-09-12T10:50:41.275Z,4.80
2022-09-12T10:53:25.320Z,5.88
2022-09-12T10:56:00.726Z,6.22
2022-09-12T10:58:44.769Z,4.75
2022-09-12T11:01:29.800Z,6.40
2022-09-12T11:04:34.019Z,4.63
2022-09-12T11:07:27.794Z,5.50
2022-09-12T11:10:02.290Z,5.75
2022-09-12T11:12:31.809Z,3.90
2022-09-12T11:15:25.157Z,4.65
2022-09-12T11:17:56.123Z,4.40
2022-09-12T11:20:42.454Z,4.10
2022-09-12T11:23:36.680Z,4.20
2022-09-12T11:26:09.435Z,3.47
2022-09-12T11:28:47.412Z,3.83
2022-09-12T11:31:20.218Z,4.70
2022-09-12T11:33:56.636Z,4.20
2022-09-12T11:36:29.947Z,4.15
2022-09-12T11:39:39.538Z,3.70
2022-09-12T11:42:16.932Z,4.55
2022-09-12T11:44:49.660Z,4.77
2022-09-12T11:47:18.678Z,4.72
2022-09-12T11:49:51.528Z,4.97
2022-09-12T11:52:23.875Z,6.63
2022-09-12T11:55:05.187Z,5.30
2022-09-12T11:57:46.312Z,3.60
2022-09-12T12:00:20.714Z,5.07
2022-09-12T12:03:10.332Z,5.25
2022-09-12T12:05:59.165Z,5.45
2022-09-12T12:08:29.679Z,5.75
2022-09-12T12:10:59.650Z,3.93
2022-09-12T12:13:39.763Z,4.25
2022-09-12T12:16:31.487Z,3.67
2022-09-12T12:19:06.508Z,4.03
2022-09-12T12:21:48.287Z,3.95
2022-09-12T12:24:22.054Z,4.03
2022-09-12T12:26:57.937Z,5.22
2022-09-12T12:29:44.604Z,4.15
2022-09-12T12:32:11.523Z,4.05
2022-09-12T12:34:42.150Z,5.55
2022-09-12T12:37:24.168Z,6.30
2022-09-12T12:39:55.538Z,5.00
2022-09-12T12:42:34.520Z,5.82
2022-09-12T12:45:22.499Z,4.75
2022-09-12T12:47:53.397Z,3.60
2022-09-12T12:50:20.118Z,4.80
2022-09-12T12:52:59.339Z,4.53
2022-09-12T12:55:38.712Z,4.70
2022-09-12T12:58:07.205Z,3.85
2022-09-12T13:00:40.344Z,4.22
2022-09-12T13:03:07.148Z,4.73
2022-09-12T13:05:59.615Z,4.13
2022-09-12T13:08:29.995Z,3.55
2022-09-12T13:11:01.107Z,3.65
2022-09-12T13:13:42.701Z,4.43
2022-09-12T13:16:28.632Z,4.73
2022-09-12T13:18:57.279Z,4.00
2022-09-12T13:21:24.173Z,4.65
2022-09-12T13:24:15.960Z,4.28
2022-09-12T13:26:46.110Z,3.75
2022-09-12T13:29:24.090Z,4.13
2022-09-12T13:31:55.295Z,5.13
2022-09-12T13:34:31.960Z,5.07
2022-09-12T13:37:14.102Z,4.70
2022-09-12T13:39:52.368Z,4.43
2022-09-12T13:42:37.584Z,3.57
2022-09-12T13:45:19.817Z,3.80
2022-09-12T13:47:58.884Z,3.97
2022-09-12T13:50:32.147Z,3.97
2022-09-12T13:53:02.341Z,3.35
2022-09-12T13:55:32.545Z,3.93
2022-09-12T13:58:04.902Z,4.07
2022-09-12T14:00:35.166Z,5.78
2022-09-12T14:03:31.584Z,4.15
2022-09-12T14:05:58.382Z,4.82
2022-09-12T14:08:25.366Z,3.70
2022-09-12T14:10:52.184Z,3.65
2022-09-12T14:13:25.217Z,5.00
2022-09-12T14:15:54.895Z,3.78
2022-09-12T14:18:28.330Z,4.07
2022-09-12T14:21:00.654Z,4.00
2022-09-12T14:23:30.128Z,3.70
2022-09-12T14:26:00.151Z,4.78
2022-09-12T14:28:31.125Z,3.95
2022-09-12T14:31:04.947Z,4.63
2022-09-12T14:33:52.688Z,4.97
2022-09-12T14:36:27.352Z,7.63
2022-09-12T14:38:58.740Z,3.83
2022-09-12T14:41:46.558Z,3.85
2022-09-12T14:44:20.774Z,5.38
2022-09-12T14:46:48.679Z,3.83
2022-09-12T14:49:41.227Z,4.07
2022-09-12T14:52:23.305Z,4.75
2022-09-12T14:55:01.546Z,4.10
2022-09-12T14:57:28.175Z,4.40
2022-09-12T15:00:14.333Z,6.00
2022-09-12T15:02:44.862Z,3.40
2022-09-12T15:05:11.529Z,3.72
2022-09-12T15:07:39.611Z,3.88
2022-09-12T15:10:14.686Z,3.80
2022-09-12T15:12:41.382Z,3.57
2022-09-12T15:15:17.033Z,4.40
2022-09-12T15:17:43.908Z,4.40
2022-09-12T15:20:10.630Z,4.68
2022-09-12T15:22:38.540Z,5.93
2022-09-12T15:25:06.479Z,4.37
2022-09-12T15:27:33.510Z,5.25
2022-09-12T15:30:00.331Z,4.30
2022-09-12T15:32:30.254Z,3.92
2022-09-12T15:34:56.930Z,4.38
2022-09-12T15:37:24.295Z,3.90
2022-09-12T15:39:51.531Z,4.13
2022-09-12T15:42:22.636Z,4.00
2022-09-12T15:44:49.315Z,3.58
2022-09-12T15:47:16.112Z,3.80
2022-09-12T15:49:42.916Z,3.77
2022-09-12T15:52:15.439Z,4.30
2022-09-12T15:54:43.265Z,5.22
2022-09-12T15:57:09.994Z,4.20
2022-09-12T15:59:37.201Z,4.53
2022-09-12T16:02:03.985Z,6.80
2022-09-12T16:04:31.458Z,4.57
2022-09-12T16:06:58.713Z,8.50
2022-09-12T16:09:25.809Z,6.22
2022-09-12T16:11:52.730Z,4.82
2022-09-12T16:14:20.079Z,4.43
2022-09-12T16:16:59.417Z,6.75
2022-09-12T16:19:26.343Z,3.65
2022-09-12T16:21:53.669Z,4.95
2022-09-12T16:24:20.521Z,4.15
2022-09-12T16:26:48.042Z,4.60
2022-09-12T16:29:15.887Z,4.97
2022-09-12T16:31:43.725Z,4.10
2022-09-12T16:34:11.566Z,4.70
2022-09-12T16:36:38.367Z,4.70
2022-09-12T16:39:06.274Z,5.20
2022-09-12T16:41:33.127Z,5.43
2022-09-12T16:43:59.880Z,12.10
2022-09-12T16:46:30.663Z,4.97
2022-09-12T16:48:58.914Z,4.78
2022-09-12T16:51:30.500Z,4.63
2022-09-12T16:53:57.754Z,4.57
2022-09-12T16:56:24.782Z,4.88
2022-09-12T16:58:51.785Z,4.82
2022-09-12T17:01:24.381Z,5.03
2022-09-12T17:03:58.280Z,8.13
2022-09-12T17:06:26.226Z,4.60
2022-09-12T17:08:54.783Z,6.03
2022-09-12T17:11:24.420Z,5.15
2022-09-12T17:14:11.737Z,6.78
2022-09-12T17:16:47.964Z,5.63
2022-09-12T17:19:23.033Z,6.90
2022-09-12T17:21:50.187Z,5.55
2022-09-12T17:24:17.982Z,6.10
2022-09-12T17:26:45.667Z,6.25
2022-09-12T17:29:14.010Z,5.33
2022-09-12T17:31:41.564Z,5.88
2022-09-12T17:34:08.568Z,6.22
2022-09-12T17:36:35.543Z,5.40
2022-09-12T17:39:03.779Z,5.63
2022-09-12T17:41:31.967Z,7.47
2022-09-12T17:44:00.734Z,6.85
2022-09-12T17:46:36.689Z,5.95
2022-09-12T17:49:14.198Z,5.47
2022-09-12T17:51:41.489Z,5.50
2022-09-12T17:54:16.069Z,5.90
2022-09-12T17:56:44.376Z,5.72
2022-09-12T17:59:15.379Z,6.00
2022-09-12T18:02:00.707Z,6.97
2022-09-12T18:04:27.734Z,7.10
2022-09-12T18:06:54.730Z,7.40
2022-09-12T18:09:24.920Z,7.65
2022-09-12T18:11:52.359Z,7.85
2022-09-12T18:14:19.649Z,7.40
2022-09-12T18:16:47.465Z,7.43
2022-09-12T18:19:14.917Z,6.87
2022-09-12T18:21:41.805Z,6.78
2022-09-12T18:24:10.189Z,6.38
2022-09-12T18:26:37.360Z,7.47
2022-09-12T18:29:04.123Z,7.22
2022-09-12T18:31:31.438Z,14.13
2022-09-12T18:34:02.631Z,7.90
2022-09-12T18:36:30.367Z,7.43
2022-09-12T18:38:58.568Z,7.30
2022-09-12T18:41:26.220Z,7.18
2022-09-12T18:44:00.706Z,6.40
2022-09-12T18:46:29.448Z,9.48
2022-09-12T18:48:57.979Z,7.57
2022-09-12T18:51:31.374Z,6.53
2022-09-12T18:54:00.612Z,6.22
2022-09-12T18:56:32.258Z,6.90
2022-09-12T18:58:59.844Z,6.68
2022-09-12T19:01:29.227Z,7.28
2022-09-12T19:03:56.463Z,5.78
2022-09-12T19:06:28.681Z,5.75
2022-09-12T19:08:57.078Z,8.03
2022-09-12T19:11:25.200Z,6.25
2022-09-12T19:13:53.784Z,6.68
2022-09-12T19:16:26.801Z,7.43
2022-09-12T19:18:55.651Z,5.95
2022-09-12T19:21:28.241Z,6.33
2022-09-12T19:23:59.948Z,6.40
2022-09-12T19:26:27.025Z,9.32
2022-09-12T19:28:54.739Z,7.63
2022-09-12T19:31:23.370Z,8.07
2022-09-12T19:33:52.097Z,6.27
2022-09-12T19:36:44.418Z,6.72
2022-09-12T19:39:08.491Z,5.75
2022-09-12T19:41:35.926Z,6.55
2022-09-12T19:44:03.794Z,7.40
2022-09-12T19:46:30.514Z,8.60
2022-09-12T19:48:57.342Z,6.38
2022-09-12T19:51:24.395Z,7.70
2022-09-12T19:53:51.851Z,7.88
2022-09-12T19:56:18.545Z,6.88
2022-09-12T19:58:49.005Z,7.40
2022-09-12T20:01:28.314Z,7.68
2022-09-12T20:03:56.620Z,5.22
2022-09-12T20:06:23.357Z,5.47
2022-09-12T20:08:50.090Z,5.43
2022-09-12T20:11:19.405Z,5.53
2022-09-12T20:13:46.662Z,8.60
2022-09-12T20:16:33.561Z,5.70
2022-09-12T20:19:08.426Z,7.57
2022-09-12T20:21:36.270Z,5.95
2022-09-12T20:24:12.322Z,6.03
2022-09-12T20:26:39.828Z,5.53
2022-09-12T20:29:07.120Z,6.53
2022-09-12T20:31:35.177Z,6.55
2022-09-12T20:34:02.654Z,5.63
2022-09-12T20:36:29.326Z,6.20
2022-09-12T20:38:59.885Z,6.00
2022-09-12T20:41:32.236Z,10.60
2022-09-12T20:43:59.092Z,6.57
2022-09-12T20:46:27.350Z,9.15
2022-09-12T20:48:54.680Z,6.63
2022-09-12T20:51:22.298Z,7.63
2022-09-12T20:53:53.485Z,6.25
2022-09-12T20:56:21.074Z,8.48
2022-09-12T20:58:47.773Z,8.32
2022-09-12T21:01:16.008Z,8.17
2022-09-12T21:03:44.730Z,6.85
2022-09-12T21:06:14.575Z,8.45
2022-09-12T21:08:41.301Z,8.05
2022-09-12T21:11:08.086Z,12.27
2022-09-12T21:13:35.269Z,9.13
2022-09-12T21:16:05.103Z,7.57
2022-09-12T21:18:32.920Z,7.00
2022-09-12T21:21:00.203Z,8.20
2022-09-12T21:23:27.931Z,10.82
2022-09-12T21:25:54.847Z,7.27
2022-09-12T21:28:22.170Z,6.60
2022-09-12T21:30:49.870Z,7.75
2022-09-12T21:33:17.663Z,7.07
2022-09-12T21:35:44.560Z,7.20
2022-09-12T21:38:11.658Z,6.50
2022-09-12T21:40:38.303Z,7.28
2022-09-12T21:43:07.213Z,7.60
2022-09-12T21:45:37.219Z,6.50
2022-09-12T21:48:04.724Z,6.53
2022-09-12T21:50:31.401Z,7.27
2022-09-12T21:52:58.180Z,8.65
2022-09-12T21:55:27.213Z,8.65
2022-09-12T21:57:55.248Z,7.95
2022-09-12T22:00:22.863Z,6.75
2022-09-12T22:02:49.927Z,6.57
2022-09-12T22:05:17.478Z,6.85
2022-09-12T22:07:44.677Z,7.10
2022-09-12T22:10:11.418Z,9.02
2022-09-12T22:12:40.764Z,7.57
2022-09-12T22:15:36.247Z,9.00
2022-09-12T22:17:56.959Z,8.90
2022-09-12T22:20:23.638Z,7.00
2022-09-12T22:23:08.898Z,7.93
2022-09-12T22:25:35.791Z,9.07
2022-09-12T22:28:02.511Z,6.90
2022-09-12T22:30:29.222Z,7.03
2022-09-12T22:32:55.935Z,7.20
2022-09-12T22:35:22.765Z,7.95
2022-09-12T22:37:49.677Z,8.27
2022-09-12T22:40:16.857Z,7.03
2022-09-12T22:42:43.596Z,8.52
2022-09-12T22:45:10.576Z,9.65
2022-09-12T22:47:37.407Z,11.55
2022-09-12T22:50:04.516Z,10.20
2022-09-12T22:52:31.282Z,8.07
2022-09-12T22:54:59.095Z,7.53
2022-09-12T22:57:25.875Z,8.45
2022-09-12T22:59:52.587Z,9.90
2022-09-12T23:02:19.291Z,10.35
2022-09-12T23:04:47.001Z,8.23
2022-09-12T23:07:13.731Z,9.73
2022-09-12T23:09:40.470Z,7.53
2022-09-12T23:12:07.300Z,6.78
2022-09-12T23:14:34.236Z,7.55
2022-09-12T23:17:02.054Z,7.00
2022-09-12T23:19:28.738Z,7.32
2022-09-12T23:21:55.582Z,7.28
2022-09-12T23:24:22.445Z,6.97
2022-09-12T23:26:49.394Z,8.07
2022-09-12T23:29:16.465Z,6.90
2022-09-12T23:31:43.878Z,8.88
2022-09-12T23:34:10.627Z,12.50
2022-09-12T23:36:37.395Z,6.88
2022-09-12T23:39:04.268Z,9.27
2022-09-12T23:41:31.627Z,9.23
2022-09-12T23:43:58.705Z,7.15
2022-09-12T23:46:25.523Z,9.25
2022-09-12T23:48:53.478Z,8.48
2022-09-12T23:51:21.886Z,6.97
2022-09-12T23:53:48.925Z,6.47
2022-09-12T23:56:15.929Z,7.00
2022-09-12T23:58:42.801Z,7.00
